Time;durP1;ratioP1;P1;durP2;ratioP2;P2;SDS_P1;SDS_P2;PMS_P1;PMS_P2;Temp;Humidity;BMP_temperature;BMP_pressure;BME280_temperature;BME280_humidity;BME280_pressure;Samples;Min_cycle;Max_cycle;Signal;HPM_P1;HPM_P2
2022/03/21 00:01:17;;;;;;;1.08;1.08;;;;;;;10.12;58.25;102370.53;5174772;28;20309;-76
2022/03/21 00:03:48;;;;;;;1.63;1.30;;;;;;;10.07;57.87;102374.00;5194837;28;20127;-77
2022/03/21 00:06:18;;;;;;;3.20;2.63;;;;;;;10.09;58.23;102371.38;5196417;28;20038;-77
2022/03/21 00:08:49;;;;;;;1.05;1.05;;;;;;;10.11;57.57;102372.25;5208606;28;20379;-76
2022/03/21 00:11:20;;;;;;;1.10;1.10;;;;;;;10.06;57.46;102385.38;5179395;28;20259;-76
2022/03/21 00:13:53;;;;;;;1.73;1.63;;;;;;;10.02;57.97;102375.75;5192692;28;20131;-77
2022/03/21 00:16:24;;;;;;;0.80;0.80;;;;;;;10.05;57.37;102383.63;5182647;28;20037;-77
2022/03/21 00:18:55;;;;;;;2.60;1.20;;;;;;;10.07;57.77;102386.25;5179883;28;20052;-78
2022/03/21 00:21:26;;;;;;;1.05;1.05;;;;;;;10.10;58.21;102390.63;5181835;28;20041;-77
2022/03/21 00:23:56;;;;;;;1.88;1.75;;;;;;;10.07;58.06;102374.00;5196151;28;20040;-77
2022/03/21 00:26:27;;;;;;;1.35;1.30;;;;;;;9.46;61.28;102387.81;5199206;28;20044;-77
2022/03/21 00:28:57;;;;;;;2.13;2.03;;;;;;;9.72;58.79;102385.28;5200441;28;20555;-77
2022/03/21 00:31:28;;;;;;;0.90;0.90;;;;;;;9.82;58.26;102369.59;5194615;28;20032;-77
2022/03/21 00:33:59;;;;;;;1.95;1.85;;;;;;;9.85;57.89;102370.47;5199666;28;20053;-77
2022/03/21 00:36:29;;;;;;;1.15;1.15;;;;;;;9.94;58.50;102374.88;5186308;28;20132;-78
2022/03/21 00:39:00;;;;;;;0.82;0.80;;;;;;;9.89;58.00;102371.34;5180385;28;20050;-77
2022/03/21 00:41:32;;;;;;;0.98;0.98;;;;;;;9.90;57.82;102368.75;5192931;28;20568;-78
2022/03/21 00:44:04;;;;;;;2.03;1.92;;;;;;;9.91;57.83;102369.59;5200834;28;20547;-78
2022/03/21 00:46:34;;;;;;;1.25;1.23;;;;;;;9.97;58.99;102368.75;5201181;28;20512;-77
2022/03/21 00:49:08;;;;;;;3.78;1.55;;;;;;;9.91;57.95;102369.59;5198305;28;20041;-77
2022/03/21 00:51:38;;;;;;;;;;;;;;;9.86;58.43;102372.22;5182287;28;20481;-77
2022/03/21 00:54:09;;;;;;;0.82;0.82;;;;;;;9.91;58.50;102369.59;5200660;28;19917;-77
2022/03/21 00:56:39;;;;;;;1.80;1.70;;;;;;;9.88;58.27;102374.84;5198804;28;20036;-77
2022/03/21 00:59:09;;;;;;;2.25;1.58;;;;;;;9.92;58.34;102371.38;5197579;28;20444;-77
2022/03/21 01:01:40;;;;;;;6.38;3.17;;;;;;;10.00;59.78;102376.63;5197683;28;21158;-77
2022/03/21 01:04:10;;;;;;;1.65;1.55;;;;;;;9.90;59.04;102379.25;5189538;28;20168;-77
2022/03/21 01:06:41;;;;;;;0.38;0.38;;;;;;;9.90;58.42;102374.00;5197392;28;20045;-77
2022/03/21 01:09:14;;;;;;;1.13;1.08;;;;;;;9.92;59.04;102381.84;5198142;28;20033;-77
2022/03/21 01:11:45;;;;;;;4.03;3.40;;;;;;;9.86;59.54;102382.72;5188600;28;20100;-77
2022/03/21 01:14:15;;;;;;;1.02;1.02;;;;;;;9.87;58.73;102388.84;5199770;28;20056;-77
2022/03/21 01:16:46;;;;;;;1.08;1.08;;;;;;;9.91;59.09;102383.63;5200276;28;20057;-77
2022/03/21 01:19:16;;;;;;;0.82;0.82;;;;;;;9.92;59.06;102376.59;5181868;28;20306;-77
2022/03/21 01:21:47;;;;;;;1.80;1.70;;;;;;;9.94;58.87;102380.13;5181366;28;20033;-77
2022/03/21 01:24:17;;;;;;;0.75;0.70;;;;;;;9.92;58.85;102387.09;5194476;28;20144;-78
2022/03/21 01:26:48;;;;;;;2.03;1.92;;;;;;;9.89;59.23;102389.69;5204435;28;20036;-77
2022/03/21 01:29:18;;;;;;;1.05;1.05;;;;;;;9.89;59.50;102385.34;5184087;28;20124;-77
2022/03/21 01:31:49;;;;;;;1.48;1.42;;;;;;;9.93;59.49;102384.47;5180537;28;20036;-77
2022/03/21 01:34:19;;;;;;;1.67;1.58;;;;;;;9.95;59.92;102391.47;5180722;28;20183;-77
2022/03/21 01:36:50;;;;;;;0.80;0.80;;;;;;;9.93;60.01;102391.47;5195210;28;20052;-77
2022/03/21 01:39:21;;;;;;;0.85;0.85;;;;;;;9.93;59.65;102394.09;5192972;28;20060;-77
2022/03/21 01:41:51;;;;;;;2.28;1.38;;;;;;;9.91;59.28;102395.81;5214139;28;20036;-77
2022/03/21 01:44:22;;;;;;;1.20;1.20;;;;;;;9.93;60.20;102391.47;5197398;28;20041;-77
2022/03/21 01:46:53;;;;;;;2.13;1.50;;;;;;;9.92;59.74;102384.47;5166138;28;20034;-76
2022/03/21 01:49:25;;;;;;;0.75;0.75;;;;;;;9.86;59.64;102384.47;5180050;28;20526;-76
2022/03/21 01:51:55;;;;;;;1.85;0.93;;;;;;;9.84;59.71;102386.19;5174452;28;20393;-77
2022/03/21 01:57:15;;;;;;;1.60;1.50;;;;;;;9.83;59.40;102397.56;5198495;28;20021;-77
2022/03/21 01:59:47;;;;;;;2.30;2.15;;;;;;;9.84;60.09;102394.06;5196756;28;20043;-78
2022/03/21 02:02:18;;;;;;;2.33;2.13;;;;;;;9.85;59.50;102387.94;5212855;28;20049;-78
2022/03/21 02:04:48;;;;;;;0.70;0.70;;;;;;;9.85;59.75;102388.81;5197550;28;20041;-78
2022/03/21 02:07:19;;;;;;;0.65;0.65;;;;;;;9.84;59.48;102388.81;5182491;28;20026;-77
2022/03/21 02:09:50;;;;;;;1.20;1.20;;;;;;;9.88;60.11;102380.06;5190736;28;20038;-78
2022/03/21 02:12:20;;;;;;;1.00;1.00;;;;;;;9.82;59.49;102378.34;5197180;28;20108;-78
2022/03/21 02:14:51;;;;;;;2.38;2.17;;;;;;;9.89;60.61;102377.47;5195159;28;20049;-78
2022/03/21 02:17:24;;;;;;;1.83;1.67;;;;;;;9.86;59.50;102387.09;5187883;28;20120;-78
2022/03/21 02:19:57;;;;;;;0.45;0.45;;;;;;;9.82;60.02;102382.69;5196955;28;20064;-78
2022/03/21 02:22:37;;;;;;;0.50;0.50;;;;;;;9.86;60.58;102387.94;5213685;28;20126;-78
2022/03/21 02:25:23;;;;;;;1.13;0.95;;;;;;;9.87;60.61;102387.09;5211323;28;20701;-78
2022/03/21 02:27:56;;;;;;;1.30;1.15;;;;;;;9.88;60.52;102390.56;5180177;28;20859;-78
2022/03/21 02:30:29;;;;;;;0.70;0.70;;;;;;;9.85;60.48;102382.72;5193614;28;20430;-78
2022/03/21 02:33:01;;;;;;;20.57;2.40;;;;;;;9.87;60.79;102384.47;5197241;28;20041;-78
2022/03/21 02:35:32;;;;;;;1.13;0.80;;;;;;;9.83;60.62;102373.97;5191397;28;20037;-78
2022/03/21 02:38:03;;;;;;;1.00;1.00;;;;;;;9.67;60.78;102378.31;5196132;28;20326;-77
2022/03/21 02:40:34;;;;;;;4.60;1.75;;;;;;;9.81;61.34;102376.59;5193126;28;20092;-78
2022/03/21 02:43:05;;;;;;;1.33;1.23;;;;;;;9.76;60.31;102367.81;5199044;28;20364;-77
2022/03/21 02:45:35;;;;;;;2.25;1.45;;;;;;;9.68;60.35;102373.06;5194620;28;20116;-78
2022/03/21 02:48:06;;;;;;;1.65;1.55;;;;;;;9.67;60.31;102376.53;5196766;28;20260;-77
2022/03/21 02:50:56;;;;;;;1.10;0.75;;;;;;;9.68;60.51;102374.78;5193013;28;20037;-77
2022/03/21 02:53:30;;;;;;;1.25;1.25;;;;;;;9.53;60.76;102381.72;5213275;28;20299;-77
2022/03/21 02:56:00;;;;;;;1.77;1.05;;;;;;;9.53;60.88;102380.88;5196354;28;20505;-76
2022/03/21 02:58:31;;;;;;;2.22;2.13;;;;;;;9.56;61.39;102378.25;5178572;28;20053;-79
2022/03/21 03:01:16;;;;;;;1.08;1.05;;;;;;;9.60;60.82;102377.41;5195234;28;20137;-78
2022/03/21 03:03:47;;;;;;;1.83;1.08;;;;;;;9.56;60.51;102381.75;5201446;28;20040;-77
2022/03/21 03:06:18;;;;;;;2.13;2.03;;;;;;;9.57;60.80;102380.00;5182707;28;20404;-76
2022/03/21 03:08:48;;;;;;;0.93;0.93;;;;;;;9.57;60.96;102372.13;5195639;28;20044;-76
2022/03/21 03:11:19;;;;;;;1.20;1.13;;;;;;;9.55;60.60;102377.38;5200234;28;20121;-77
2022/03/21 03:13:49;;;;;;;2.33;2.13;;;;;;;9.52;60.62;102376.50;5167941;28;20033;-76
2022/03/21 03:16:20;;;;;;;1.00;0.82;;;;;;;9.52;60.94;102374.72;5196542;28;20033;-77
2022/03/21 03:18:50;;;;;;;1.52;1.42;;;;;;;9.41;60.38;102372.06;5183727;28;20091;-77
2022/03/21 03:21:30;;;;;;;0.82;0.82;;;;;;;9.34;60.64;102372.06;5185081;28;20501;-77
2022/03/21 03:24:02;;;;;;;0.50;0.50;;;;;;;9.31;60.99;102377.28;5179264;28;20359;-76
2022/03/21 03:26:32;;;;;;;4.70;3.20;;;;;;;9.33;60.65;102373.78;5180986;28;20516;-77
2022/03/21 03:29:04;;;;;;;1.27;1.17;;;;;;;9.37;60.76;102370.31;5177188;28;20061;-76
2022/03/21 03:31:37;;;;;;;1.38;1.38;;;;;;;9.30;60.48;102381.63;5192267;28;20029;-76
2022/03/21 03:34:09;;;;;;;1.85;1.75;;;;;;;9.29;60.53;102385.13;5160597;28;20057;-77
2022/03/21 03:36:40;;;;;;;1.52;1.42;;;;;;;9.22;60.30;102380.69;5192915;28;20037;-75
2022/03/21 03:39:11;;;;;;;1.00;1.00;;;;;;;9.15;61.52;102377.19;5192835;28;20049;-76
2022/03/21 03:41:42;;;;;;;0.93;0.93;;;;;;;9.18;61.40;102382.44;5191465;28;20443;-75
2022/03/21 03:44:12;;;;;;;1.67;1.13;;;;;;;9.19;61.21;102378.09;5173908;28;20656;-77
2022/03/21 03:46:42;;;;;;;2.50;2.13;;;;;;;9.13;61.40;102379.78;5202849;28;20025;-78
2022/03/21 03:49:13;;;;;;;0.75;0.75;;;;;;;9.12;61.21;102379.78;5169855;28;20413;-75
2022/03/21 03:51:44;;;;;;;2.15;1.65;;;;;;;9.13;61.05;102381.53;5162626;28;20468;-76
2022/03/21 03:54:14;;;;;;;1.48;1.42;;;;;;;9.09;61.30;102378.03;5186907;28;20049;-77
2022/03/21 03:56:44;;;;;;;1.58;1.48;;;;;;;9.05;61.25;102376.25;5196985;28;20029;-76
2022/03/21 03:59:15;;;;;;;1.92;1.83;;;;;;;9.01;61.19;102379.72;5193594;28;20405;-76
2022/03/21 04:01:45;;;;;;;4.93;2.28;;;;;;;9.00;61.29;102380.59;5190987;28;20032;-76
2022/03/21 04:04:16;;;;;;;2.75;1.75;;;;;;;8.96;61.16;102397.16;5195441;28;20471;-77
2022/03/21 04:06:47;;;;;;;0.98;0.98;;;;;;;8.97;61.22;102394.53;5182348;28;20458;-77
2022/03/21 04:09:17;;;;;;;1.50;1.42;;;;;;;8.99;61.40;102391.94;5192984;28;20042;-76
2022/03/21 04:11:48;;;;;;;1.00;1.00;;;;;;;8.97;61.80;102391.03;5195031;28;20241;-76
2022/03/21 04:14:18;;;;;;;2.35;2.15;;;;;;;9.01;61.48;102390.19;5178911;28;20213;-76
2022/03/21 04:16:49;;;;;;;0.95;0.95;;;;;;;8.98;61.54;102384.94;5179583;28;20030;-76
2022/03/21 04:19:20;;;;;;;0.63;0.63;;;;;;;9.03;62.16;102393.72;5192019;28;20048;-76
2022/03/21 04:21:51;;;;;;;1.42;1.35;;;;;;;9.03;61.93;102398.06;5193747;28;20443;-76
2022/03/21 04:24:22;;;;;;;1.65;1.42;;;;;;;9.00;61.67;102398.06;5195225;28;20045;-76
2022/03/21 04:26:52;;;;;;;1.83;1.42;;;;;;;8.94;61.16;102409.34;5194097;28;20045;-76
2022/03/21 04:29:23;;;;;;;1.30;1.27;;;;;;;8.96;61.75;102407.63;5194116;28;20254;-76
2022/03/21 04:31:53;;;;;;;1.42;1.33;;;;;;;8.92;61.30;102408.47;5190762;28;20033;-76
2022/03/21 04:34:24;;;;;;;4.72;1.33;;;;;;;8.87;61.36;102412.81;5200228;28;20075;-77
2022/03/21 04:36:55;;;;;;;0.68;0.68;;;;;;;8.81;61.50;102409.25;5196341;28;20033;-76
2022/03/21 04:39:25;;;;;;;2.25;2.05;;;;;;;8.92;61.91;102411.97;5192436;28;20049;-77
2022/03/21 04:41:55;;;;;;;1.27;1.02;;;;;;;8.80;61.52;102407.50;5194098;28;20071;-76
2022/03/21 04:44:26;;;;;;;0.70;0.70;;;;;;;8.80;61.46;102406.63;5193391;28;20418;-77
2022/03/21 04:46:57;;;;;;;1.38;1.25;;;;;;;8.72;61.57;102410.94;5198294;28;20033;-76
2022/03/21 04:49:27;;;;;;;0.73;0.73;;;;;;;8.70;61.72;102416.16;5207208;28;20072;-76
2022/03/21 04:51:58;;;;;;;1.00;1.00;;;;;;;8.71;61.43;102414.41;5195190;28;20029;-77
2022/03/21 04:54:28;;;;;;;1.35;1.33;;;;;;;8.60;61.42;102407.34;5213285;28;20524;-76
2022/03/21 04:56:59;;;;;;;1.75;1.65;;;;;;;8.48;61.51;102421.19;5193465;28;20029;-76
2022/03/21 04:59:29;;;;;;;1.65;1.50;;;;;;;8.57;61.82;102419.53;5207263;28;20046;-76
2022/03/21 05:02:01;;;;;;;0.43;0.43;;;;;;;8.58;61.66;102422.19;5181961;28;20029;-76
2022/03/21 05:04:32;;;;;;;0.57;0.57;;;;;;;8.47;61.63;102418.59;5196189;28;20133;-76
2022/03/21 05:07:05;;;;;;;3.10;1.88;;;;;;;8.57;61.90;102430.00;5162108;28;20021;-76
2022/03/21 05:09:35;;;;;;;2.08;1.98;;;;;;;8.53;61.86;102428.22;5194765;28;20041;-77
2022/03/21 05:12:08;;;;;;;1.42;1.33;;;;;;;8.53;62.27;102433.47;5189537;28;22277;-76
2022/03/21 05:14:39;;;;;;;2.42;2.22;;;;;;;8.49;61.58;102422.09;5213280;28;20033;-77
2022/03/21 05:17:10;;;;;;;1.10;1.10;;;;;;;8.42;61.26;102425.50;5184063;28;20022;-77
2022/03/21 05:19:41;;;;;;;1.08;1.08;;;;;;;8.39;60.99;102435.91;5200151;28;20502;-77
2022/03/21 05:22:11;;;;;;;0.70;0.70;;;;;;;8.34;61.79;102430.63;5210949;28;20029;-76
2022/03/21 05:30:57;;;;;;;0.93;0.93;;;;;;;8.34;61.76;102430.63;5181546;28;20060;-76
2022/03/21 05:36:15;;;;;;;0.88;0.70;;;;;;;8.24;61.87;102436.63;5196955;28;20496;-76
2022/03/21 05:38:45;;;;;;;0.70;0.70;;;;;;;8.23;61.83;102442.72;5204225;28;20026;-77
2022/03/21 05:41:16;;;;;;;3.33;2.88;;;;;;;8.17;61.36;102441.81;5163547;28;20246;-76
2022/03/21 05:43:49;;;;;;;0.90;0.90;;;;;;;8.06;62.20;102447.78;5203794;28;20030;-76
2022/03/21 05:46:20;;;;;;;0.65;0.65;;;;;;;8.06;61.54;102443.41;5182552;28;20038;-77
2022/03/21 05:49:02;;;;;;;1.65;1.55;;;;;;;8.09;61.74;102451.31;5165752;28;20058;-76
2022/03/21 05:51:35;;;;;;;1.00;1.00;;;;;;;8.07;61.97;102446.91;5178392;28;20108;-76
2022/03/21 05:54:08;;;;;;;1.35;1.25;;;;;;;8.08;62.20;102457.38;5187412;28;20033;-76
2022/03/21 05:56:41;;;;;;;1.15;1.15;;;;;;;8.11;62.35;102456.53;5185185;28;20033;-77
2022/03/21 06:02:01;;;;;;;1.27;1.25;;;;;;;8.01;61.76;102460.78;5202034;28;20058;-77
2022/03/21 06:04:31;;;;;;;2.53;2.33;;;;;;;7.97;61.70;102459.88;5178295;28;20081;-77
2022/03/21 06:07:02;;;;;;;3.22;1.80;;;;;;;7.93;61.50;102465.06;5199187;28;20033;-77
2022/03/21 06:09:33;;;;;;;1.20;1.20;;;;;;;7.93;61.87;102459.81;5197556;28;20056;-77
2022/03/21 06:12:04;;;;;;;0.80;0.80;;;;;;;7.91;61.80;102461.53;5182920;28;20036;-77
2022/03/21 06:14:34;;;;;;;3.33;2.55;;;;;;;7.91;62.09;102469.38;5195903;28;20040;-76
2022/03/21 06:17:05;;;;;;;2.50;1.63;;;;;;;7.91;61.52;102466.75;5197808;28;20033;-76
2022/03/21 06:19:35;;;;;;;0.55;0.55;;;;;;;7.91;62.19;102475.50;5197881;28;20120;-76
2022/03/21 06:22:05;;;;;;;1.25;1.10;;;;;;;7.93;62.45;102483.34;5179761;28;20535;-75
2022/03/21 06:24:36;;;;;;;0.88;0.88;;;;;;;7.83;62.42;102478.00;5197724;28;20052;-76
2022/03/21 06:27:06;;;;;;;0.50;0.50;;;;;;;7.83;61.73;102480.63;5198514;28;20061;-76
2022/03/21 06:29:41;;;;;;;1.65;1.63;;;;;;;7.82;61.91;102478.84;5180345;28;20261;-76
2022/03/21 06:32:13;;;;;;;0.73;0.70;;;;;;;7.83;62.18;102478.00;5178530;28;20068;-76
2022/03/21 06:34:44;;;;;;;1.33;1.27;;;;;;;7.82;62.01;102484.09;5197218;28;20034;-77
2022/03/21 06:37:15;;;;;;;0.85;0.85;;;;;;;7.80;62.14;102483.22;5168429;28;20022;-76
2022/03/21 06:39:45;;;;;;;0.90;0.90;;;;;;;7.80;62.17;102492.78;5195423;28;20042;-76
2022/03/21 06:42:17;;;;;;;13.65;3.17;;;;;;;7.77;61.88;102493.63;5194577;28;20033;-76
2022/03/21 06:44:49;;;;;;;5.40;1.90;;;;;;;7.73;61.66;102491.81;5197126;28;20132;-76
2022/03/21 06:47:20;;;;;;;1.50;1.47;;;;;;;7.75;62.11;102492.72;5182810;28;20034;-76
2022/03/21 06:49:51;;;;;;;0.93;0.93;;;;;;;7.78;62.70;102497.97;5167092;28;20280;-76
2022/03/21 06:52:21;;;;;;;1.80;1.70;;;;;;;7.77;62.26;102482.31;5194370;28;20668;-75
2022/03/21 06:54:52;;;;;;;3.92;2.63;;;;;;;7.78;62.63;102494.47;5195145;28;20468;-76
2022/03/21 06:57:22;;;;;;;2.08;1.40;;;;;;;7.77;62.14;102495.38;5178859;28;20033;-77
2022/03/21 06:59:53;;;;;;;1.75;1.52;;;;;;;7.78;62.71;102500.59;5195914;28;20670;-77
2022/03/21 07:02:24;;;;;;;1.23;1.23;;;;;;;7.80;62.79;102503.22;5207840;28;20053;-76
2022/03/21 07:04:55;;;;;;;2.35;2.15;;;;;;;7.78;62.84;102500.59;5193852;28;20046;-77
2022/03/21 07:07:26;;;;;;;2.22;2.08;;;;;;;7.82;62.99;102502.38;5177346;28;20036;-77
2022/03/21 07:09:57;;;;;;;2.10;2.00;;;;;;;7.78;63.06;102508.44;5194168;28;20053;-77
2022/03/21 07:12:27;;;;;;;1.85;1.75;;;;;;;7.81;62.60;102502.38;5193200;28;20041;-77
2022/03/21 07:14:58;;;;;;;1.42;1.33;;;;;;;7.79;63.13;102502.34;5163637;28;20048;-75
2022/03/21 07:17:28;;;;;;;0.77;0.77;;;;;;;7.83;63.18;102503.28;5193764;28;20045;-77
2022/03/21 07:19:59;;;;;;;0.88;0.88;;;;;;;7.84;62.83;102502.41;5178530;28;20056;-78
2022/03/21 07:22:29;;;;;;;1.15;1.08;;;;;;;7.78;63.35;102510.16;5216016;28;20029;-78
2022/03/21 07:25:00;;;;;;;5.13;1.67;;;;;;;7.75;63.11;102511.00;5179561;28;20033;-77
2022/03/21 07:27:30;;;;;;;9.15;2.85;;;;;;;7.74;63.60;102508.38;5169036;28;20025;-78
2022/03/21 07:30:01;;;;;;;0.82;0.82;;;;;;;7.78;63.22;102513.66;5181263;28;20117;-78
2022/03/21 07:32:32;;;;;;;4.78;3.78;;;;;;;7.76;64.54;102509.28;5180854;28;20037;-78
2022/03/21 07:35:02;;;;;;;2.88;1.75;;;;;;;7.77;64.41;102518.88;5178860;28;20041;-78
2022/03/21 07:37:49;;;;;;;1.50;1.40;;;;;;;7.80;64.81;102516.28;5183733;28;20037;-77
2022/03/21 07:40:20;;;;;;;0.60;0.60;;;;;;;7.82;65.39;102515.44;5196725;28;20044;-78
2022/03/21 07:42:51;;;;;;;1.95;1.85;;;;;;;7.90;65.40;102519.88;5213972;28;20544;-78
2022/03/21 07:48:11;;;;;;;1.02;1.02;;;;;;;8.03;64.60;102522.69;5210070;28;20102;-78
2022/03/21 07:50:42;;;;;;;6.43;3.03;;;;;;;8.06;64.92;102518.38;5185788;28;20470;-78
2022/03/21 07:53:13;;;;;;;2.13;2.03;;;;;;;8.10;64.82;102513.19;5200852;28;20256;-78
2022/03/21 07:55:43;;;;;;;1.40;1.35;;;;;;;8.10;66.92;102523.66;5198118;28;20049;-78
2022/03/21 07:58:14;;;;;;;2.22;2.13;;;;;;;8.14;65.72;102520.19;5200807;28;20033;-78
2022/03/21 08:00:44;;;;;;;2.20;2.08;;;;;;;8.14;66.57;102528.03;5175533;28;20123;-77
2022/03/21 08:03:16;;;;;;;3.72;2.05;;;;;;;8.23;66.43;102529.91;5190646;28;20033;-76
2022/03/21 08:05:46;;;;;;;3.95;2.85;;;;;;;8.29;64.93;102522.13;5164678;28;20168;-77
2022/03/21 08:08:17;;;;;;;5.55;2.63;;;;;;;8.30;65.32;102531.72;5177453;28;20041;-77
2022/03/21 08:10:47;;;;;;;2.38;2.03;;;;;;;8.45;65.74;102532.75;5161509;28;20125;-76
2022/03/21 08:13:19;;;;;;;3.20;2.88;;;;;;;8.35;66.51;102532.66;5179746;28;20461;-75
2022/03/21 08:15:50;;;;;;;2.45;2.28;;;;;;;8.44;67.41;102529.28;5163059;28;20038;-76
2022/03/21 08:18:20;;;;;;;3.20;1.88;;;;;;;8.39;66.87;102532.69;5177984;28;20702;-76
2022/03/21 08:20:51;;;;;;;1.65;1.55;;;;;;;8.40;68.06;102532.69;5210766;28;20042;-76
2022/03/21 08:23:22;;;;;;;3.63;2.70;;;;;;;8.50;66.63;102537.22;5195345;28;20105;-76
2022/03/21 08:25:56;;;;;;;6.53;2.45;;;;;;;8.50;66.91;102533.72;5195295;28;20468;-76
2022/03/21 08:28:26;;;;;;;1.80;1.35;;;;;;;8.60;66.10;102535.56;5206548;28;20037;-77
2022/03/21 08:30:56;;;;;;;2.88;1.70;;;;;;;8.63;65.94;102534.75;5190321;28;20111;-76
2022/03/21 08:33:27;;;;;;;1.55;1.45;;;;;;;8.63;66.54;102534.75;5212839;28;20037;-77
2022/03/21 08:35:57;;;;;;;2.63;2.42;;;;;;;8.66;66.78;102533.03;5176063;28;20029;-76
2022/03/21 08:38:28;;;;;;;2.88;2.67;;;;;;;8.73;66.22;102535.69;5187895;28;20037;-78
2022/03/21 08:40:58;;;;;;;2.78;2.55;;;;;;;8.77;66.14;102534.84;5210395;28;20111;-77
2022/03/21 08:43:29;;;;;;;1.65;1.55;;;;;;;8.81;66.49;102539.25;5196993;28;20049;-75
2022/03/21 08:46:00;;;;;;;5.63;3.17;;;;;;;8.87;66.25;102534.06;5181372;28;20068;-77
2022/03/21 08:51:19;;;;;;;2.58;2.40;;;;;;;8.96;66.90;102535.91;5200095;28;20057;-77
2022/03/21 08:53:50;;;;;;;1.90;1.80;;;;;;;9.01;65.54;102530.72;5203358;28;21515;-77
2022/03/21 08:56:21;;;;;;;3.20;2.88;;;;;;;9.06;66.91;102531.63;5202553;28;20048;-77
2022/03/21 08:58:52;;;;;;;5.78;2.42;;;;;;;9.14;66.03;102537.81;5203052;28;20026;-76
2022/03/21 09:01:23;;;;;;;3.67;3.30;;;;;;;9.33;66.77;102532.72;5203101;28;20406;-77
2022/03/21 09:03:55;;;;;;;3.92;3.47;;;;;;;9.28;65.99;102535.31;5199092;28;20245;-77
2022/03/21 09:06:25;;;;;;;3.90;2.25;;;;;;;9.35;66.07;102534.47;5213247;28;20042;-77
2022/03/21 09:08:56;;;;;;;3.63;1.50;;;;;;;9.38;66.12;102526.63;5200875;28;20552;-77
2022/03/21 09:11:27;;;;;;;1.75;1.60;;;;;;;9.50;65.75;102538.94;5195283;28;20057;-78
2022/03/21 09:13:58;;;;;;;2.05;1.95;;;;;;;9.51;65.83;102534.56;5202392;28;20034;-78
2022/03/21 09:16:29;;;;;;;2.28;2.17;;;;;;;9.50;66.12;102531.09;5184818;28;20037;-78
2022/03/21 09:18:59;;;;;;;1.92;1.83;;;;;;;9.60;65.89;102527.63;5217837;28;20033;-77
2022/03/21 09:21:30;;;;;;;2.75;1.80;;;;;;;9.75;65.93;102521.63;5187364;28;20079;-77
2022/03/21 09:24:02;;;;;;;3.58;2.97;;;;;;;9.73;65.67;102523.34;5204434;28;20516;-78
2022/03/21 09:26:32;;;;;;;1.80;1.70;;;;;;;9.82;66.27;102526.88;5208643;28;20243;-78
2022/03/21 09:29:04;;;;;;;1.73;1.52;;;;;;;9.81;65.67;102530.38;5208387;28;20455;-76
2022/03/21 09:31:36;;;;;;;2.10;1.98;;;;;;;9.89;65.66;102526.03;5191639;28;20120;-77
2022/03/21 09:34:12;;;;;;;3.33;3.03;;;;;;;9.94;66.12;102519.09;5211814;28;20034;-77
2022/03/21 09:36:43;;;;;;;2.42;2.00;;;;;;;9.98;66.33;102518.22;5226681;28;20084;-76
2022/03/21 09:39:14;;;;;;;4.85;3.53;;;;;;;10.04;65.69;102515.59;5183766;28;20041;-76
2022/03/21 09:41:46;;;;;;;2.22;1.70;;;;;;;10.10;65.16;102517.38;5200089;28;20029;-77
2022/03/21 09:44:16;;;;;;;2.78;2.58;;;;;;;10.17;65.65;102515.66;5187475;28;20029;-77
2022/03/21 09:46:48;;;;;;;3.25;2.45;;;;;;;10.21;66.14;102513.06;5191881;28;20025;-77
2022/03/21 09:49:25;;;;;;;5.07;2.97;;;;;;;10.27;65.30;102512.22;5184283;28;20056;-77
2022/03/21 09:51:58;;;;;;;1.80;1.65;;;;;;;10.46;65.62;102521.03;5207837;28;20025;-76
2022/03/21 09:54:28;;;;;;;3.33;3.13;;;;;;;10.52;65.33;102514.94;5198858;28;20496;-76
2022/03/21 09:57:03;;;;;;;3.47;3.20;;;;;;;10.57;65.26;102518.44;5186100;28;20044;-78
2022/03/21 09:59:33;;;;;;;3.08;2.63;;;;;;;10.70;65.80;102519.31;5213874;28;20425;-78
2022/03/21 10:02:04;;;;;;;3.20;2.60;;;;;;;10.74;65.37;102512.31;5194654;28;20041;-75
2022/03/21 10:04:34;;;;;;;1.73;1.58;;;;;;;10.77;64.65;102514.97;5166946;28;20037;-78
2022/03/21 10:07:05;;;;;;;2.88;2.63;;;;;;;10.81;64.74;102514.97;5188501;28;20064;-78
2022/03/21 10:09:35;;;;;;;1.27;1.17;;;;;;;10.92;63.82;102509.72;5168477;28;20133;-77
2022/03/21 10:12:10;;;;;;;3.95;3.25;;;;;;;10.87;64.34;102508.81;5200204;28;20555;-80
2022/03/21 10:14:41;;;;;;;3.13;2.88;;;;;;;10.96;65.08;102505.34;5182665;28;20057;-78
2022/03/21 10:17:22;;;;;;;5.38;1.75;;;;;;;11.05;63.49;102504.44;5185785;28;20034;-78
2022/03/21 10:19:53;;;;;;;3.17;2.90;;;;;;;11.01;63.63;102503.56;5209489;28;20033;-78
2022/03/21 10:22:33;;;;;;;4.90;3.28;;;;;;;11.19;63.02;102502.72;5170214;28;20026;-77
2022/03/21 10:25:08;;;;;;;3.50;3.00;;;;;;;11.26;63.24;102499.19;5202964;28;20041;-77
2022/03/21 10:27:39;;;;;;;2.45;2.20;;;;;;;11.38;63.98;102495.66;5203094;28;20037;-77
2022/03/21 10:30:15;;;;;;;3.35;3.05;;;;;;;11.36;63.33;102494.78;5202028;28;20621;-77
2022/03/21 10:32:52;;;;;;;2.92;2.33;;;;;;;11.42;64.11;102499.16;5184562;28;20042;-77
2022/03/21 10:35:26;;;;;;;2.75;2.55;;;;;;;11.46;63.75;102491.25;5201437;28;20041;-78
2022/03/21 10:37:58;;;;;;;2.38;2.22;;;;;;;11.45;63.88;102489.50;5181483;28;20033;-78
2022/03/21 10:40:33;;;;;;;2.60;2.40;;;;;;;11.55;62.75;102485.09;5191930;28;20469;-77
2022/03/21 10:43:06;;;;;;;3.95;3.05;;;;;;;11.74;62.64;102485.03;5194515;28;20025;-77
2022/03/21 10:45:36;;;;;;;3.03;2.78;;;;;;;11.74;61.68;102485.91;5195535;28;20440;-77
2022/03/21 10:48:18;;;;;;;3.60;2.70;;;;;;;11.79;62.56;102488.50;5181581;28;20029;-78
2022/03/21 10:50:51;;;;;;;4.88;1.70;;;;;;;11.90;62.51;102485.88;5184232;28;20057;-78
2022/03/21 10:53:25;;;;;;;2.70;2.50;;;;;;;11.90;62.47;102483.25;5195565;28;20029;-77
2022/03/21 10:56:05;;;;;;;2.50;2.30;;;;;;;12.05;61.85;102479.66;5197446;28;20049;-76
2022/03/21 10:58:44;;;;;;;2.22;1.92;;;;;;;12.12;61.14;102481.38;5184254;28;20516;-78
2022/03/21 11:01:23;;;;;;;3.10;1.98;;;;;;;12.27;60.86;102483.91;5177667;28;20335;-76
2022/03/21 11:03:57;;;;;;;1.70;1.60;;;;;;;12.31;60.81;102483.91;5199535;28;20398;-78
2022/03/21 11:06:28;;;;;;;1.33;1.25;;;;;;;12.21;60.93;102483.09;5182148;28;20103;-78
2022/03/21 11:09:02;;;;;;;4.22;2.97;;;;;;;12.49;60.56;102485.53;5199283;28;20025;-77
2022/03/21 11:11:33;;;;;;;5.20;2.97;;;;;;;12.71;59.32;102476.63;5160583;28;20391;-77
2022/03/21 11:14:05;;;;;;;1.80;1.70;;;;;;;12.71;59.20;102479.25;5197165;28;20029;-77
2022/03/21 11:16:37;;;;;;;3.65;2.63;;;;;;;12.79;59.52;102471.28;5178815;28;20080;-77
2022/03/21 11:19:07;;;;;;;2.10;2.00;;;;;;;12.70;60.82;102474.88;5199617;28;20076;-78
2022/03/21 11:21:38;;;;;;;3.42;2.85;;;;;;;12.80;60.22;102470.41;5177178;28;20033;-77
2022/03/21 11:24:11;;;;;;;1.85;1.75;;;;;;;13.03;59.44;102467.56;5170886;28;20025;-77
2022/03/21 11:27:09;;;;;;;2.90;2.55;;;;;;;13.08;60.05;102467.53;5199362;28;20108;-78
2022/03/21 11:29:52;;;;;;;4.03;2.83;;;;;;;13.19;59.38;102468.28;5182932;28;20095;-77
2022/03/21 11:32:48;;;;;;;3.75;3.10;;;;;;;13.43;58.47;102460.16;5181509;28;20091;-78
2022/03/21 11:35:28;;;;;;;3.35;2.15;;;;;;;13.25;58.20;102459.44;5181121;28;20727;-77
2022/03/21 11:38:22;;;;;;;4.00;2.92;;;;;;;13.44;58.78;102462.78;5196387;28;20111;-78
2022/03/21 11:41:22;;;;;;;6.85;3.63;;;;;;;13.51;58.93;102458.31;5198591;28;20037;-78
2022/03/21 11:44:15;;;;;;;2.45;2.25;;;;;;;13.76;57.10;102458.88;5200488;28;20025;-78
2022/03/21 11:46:47;;;;;;;3.53;3.20;;;;;;;13.68;58.28;102463.38;5199074;28;20098;-81
2022/03/21 11:49:18;;;;;;;2.03;1.88;;;;;;;13.75;58.14;102461.53;5181788;28;20056;-80
2022/03/21 11:51:56;;;;;;;1.88;1.70;;;;;;;13.77;56.95;102451.84;5178188;28;20045;-79
2022/03/21 11:54:29;;;;;;;1.63;1.52;;;;;;;13.78;59.12;102446.53;5213638;28;20049;-80
2022/03/21 11:57:08;;;;;;;1.75;1.63;;;;;;;14.04;57.10;102447.09;5183391;28;20029;-80
2022/03/21 11:59:39;;;;;;;3.83;2.63;;;;;;;14.13;57.05;102450.47;5163789;28;20042;-79
2022/03/21 12:02:10;;;;;;;2.03;1.23;;;;;;;14.28;56.10;102440.56;5200280;28;20041;-78
2022/03/21 12:04:41;;;;;;;0.90;0.90;;;;;;;14.28;56.67;102443.22;5167407;28;20041;-79
2022/03/21 12:07:11;;;;;;;2.00;1.75;;;;;;;14.53;55.49;102446.38;5200580;28;20031;-78
2022/03/21 12:09:47;;;;;;;5.78;4.28;;;;;;;14.44;55.01;102438.59;5181548;28;20254;-78
2022/03/21 12:12:19;;;;;;;1.63;1.52;;;;;;;14.46;56.61;102434.16;5181643;28;20378;-79
2022/03/21 12:14:55;;;;;;;2.10;1.48;;;;;;;14.59;54.04;102437.44;5214570;28;20068;-80